sensor_id;sensor_type;location;lat;lon;timestamp;pressure;altitude;pressure_sealevel;temperature;humidity
61678;BME280;47575;52.054;4.334;2022-09-03T00:00:00;101029.25;;;19.24;100.00
61678;BME280;47575;52.054;4.334;2022-09-03T00:02:38;101034.75;;;19.21;100.00
61678;BME280;47575;52.054;4.334;2022-09-03T00:05:11;101027.00;;;19.18;100.00
61678;BME280;47575;52.054;4.334;2022-09-03T00:07:45;101013.00;;;19.16;100.00
61678;BME280;47575;52.054;4.334;2022-09-03T00:10:20;101016.59;;;19.15;100.00
61678;BME280;47575;52.054;4.334;2022-09-03T00:12:50;101011.47;;;19.12;100.00
61678;BME280;47575;52.054;4.334;2022-09-03T00:15:21;101014.97;;;19.12;100.00
61678;BME280;47575;52.054;4.334;2022-09-03T00:17:53;101000.75;;;19.13;100.00
61678;BME280;47575;52.054;4.334;2022-09-03T00:20:27;101018.47;;;19.13;100.00
61678;BME280;47575;52.054;4.334;2022-09-03T00:22:59;101014.00;;;19.13;100.00
61678;BME280;47575;52.054;4.334;2022-09-03T00:25:33;100998.94;;;19.14;100.00
61678;BME280;47575;52.054;4.334;2022-09-03T00:28:05;101000.75;;;19.13;100.00
61678;BME280;47575;52.054;4.334;2022-09-03T00:30:35;101002.56;;;19.13;100.00
61678;BME280;47575;52.054;4.334;2022-09-03T00:33:07;100992.72;;;19.15;100.00
61678;BME280;47575;52.054;4.334;2022-09-03T00:35:40;100996.09;;;19.17;100.00
61678;BME280;47575;52.054;4.334;2022-09-03T00:38:09;100997.81;;;19.18;100.00
61678;BME280;47575;52.054;4.334;2022-09-03T00:40:58;100999.28;;;19.22;100.00
61678;BME280;47575;52.054;4.334;2022-09-03T00:43:39;101001.94;;;19.22;100.00
61678;BME280;47575;52.054;4.334;2022-09-03T00:46:17;101002.91;;;19.21;100.00
61678;BME280;47575;52.054;4.334;2022-09-03T00:49:01;101004.13;;;19.29;100.00
61678;BME280;47575;52.054;4.334;2022-09-03T00:51:40;101010.56;;;19.25;100.00
61678;BME280;47575;52.054;4.334;2022-09-03T00:54:16;101009.84;;;19.23;100.00
61678;BME280;47575;52.054;4.334;2022-09-03T00:56:57;101004.53;;;19.23;100.00
61678;BME280;47575;52.054;4.334;2022-09-03T00:59:33;101003.69;;;19.23;100.00
61678;BME280;47575;52.054;4.334;2022-09-03T01:02:12;101001.09;;;19.21;100.00
61678;BME280;47575;52.054;4.334;2022-09-03T01:04:51;101000.34;;;19.19;100.00
61678;BME280;47575;52.054;4.334;2022-09-03T01:07:32;100999.78;;;19.14;100.00
61678;BME280;47575;52.054;4.334;2022-09-03T01:10:14;101000.75;;;19.13;100.00
61678;BME280;47575;52.054;4.334;2022-09-03T01:12:50;101006.28;;;19.10;100.00
61678;BME280;47575;52.054;4.334;2022-09-03T01:15:22;101004.75;;;19.06;100.00
61678;BME280;47575;52.054;4.334;2022-09-03T01:18:04;101005.59;;;19.06;100.00
61678;BME280;47575;52.054;4.334;2022-09-03T01:20:48;101007.72;;;19.01;100.00
61678;BME280;47575;52.054;4.334;2022-09-03T01:23:37;101007.16;;;18.96;100.00
61678;BME280;47575;52.054;4.334;2022-09-03T01:26:22;101015.50;;;18.90;100.00
61678;BME280;47575;52.054;4.334;2022-09-03T01:29:02;101013.34;;;18.83;100.00
61678;BME280;47575;52.054;4.334;2022-09-03T01:31:35;101013.72;;;18.76;100.00
61678;BME280;47575;52.054;4.334;2022-09-03T01:34:14;101011.28;;;18.73;100.00
61678;BME280;47575;52.054;4.334;2022-09-03T01:36:48;101015.84;;;18.71;100.00
61678;BME280;47575;52.054;4.334;2022-09-03T01:39:27;101009.97;;;18.66;100.00
61678;BME280;47575;52.054;4.334;2022-09-03T01:42:08;101006.81;;;18.60;100.00
61678;BME280;47575;52.054;4.334;2022-09-03T01:44:53;101009.84;;;18.53;100.00
61678;BME280;47575;52.054;4.334;2022-09-03T01:47:29;101004.97;;;18.47;100.00
61678;BME280;47575;52.054;4.334;2022-09-03T01:50:06;101005.13;;;18.44;100.00
61678;BME280;47575;52.054;4.334;2022-09-03T01:52:44;101006.47;;;18.37;100.00
61678;BME280;47575;52.054;4.334;2022-09-03T01:55:26;101002.38;;;18.32;100.00
61678;BME280;47575;52.054;4.334;2022-09-03T01:57:56;101010.53;;;18.29;100.00
61678;BME280;47575;52.054;4.334;2022-09-03T02:00:26;101006.56;;;18.21;100.00
61678;BME280;47575;52.054;4.334;2022-09-03T02:02:55;100999.72;;;18.17;100.00
61678;BME280;47575;52.054;4.334;2022-09-03T02:05:23;101002.56;;;18.14;100.00
61678;BME280;47575;52.054;4.334;2022-09-03T02:07:55;101001.06;;;18.10;100.00
61678;BME280;47575;52.054;4.334;2022-09-03T02:10:27;100999.53;;;18.06;100.00
61678;BME280;47575;52.054;4.334;2022-09-03T02:12:59;100995.47;;;18.01;100.00
61678;BME280;47575;52.054;4.334;2022-09-03T02:15:30;100999.25;;;17.96;100.00
61678;BME280;47575;52.054;4.334;2022-09-03T02:18:02;100999.53;;;17.92;100.00
61678;BME280;47575;52.054;4.334;2022-09-03T02:20:32;100998.88;;;17.88;100.00
61678;BME280;47575;52.054;4.334;2022-09-03T02:22:59;100993.16;;;17.80;100.00
61678;BME280;47575;52.054;4.334;2022-09-03T02:25:31;100994.22;;;17.78;100.00
61678;BME280;47575;52.054;4.334;2022-09-03T02:28:03;100996.00;;;17.77;100.00
61678;BME280;47575;52.054;4.334;2022-09-03T02:30:32;100995.34;;;17.74;100.00
61678;BME280;47575;52.054;4.334;2022-09-03T02:33:00;100984.97;;;17.69;100.00
61678;BME280;47575;52.054;4.334;2022-09-03T02:35:27;100991.13;;;17.69;100.00
61678;BME280;47575;52.054;4.334;2022-09-03T02:37:55;100991.50;;;17.63;100.00
61678;BME280;47575;52.054;4.334;2022-09-03T02:40:22;100987.25;;;17.61;100.00
61678;BME280;47575;52.054;4.334;2022-09-03T02:42:49;100993.63;;;17.57;100.00
61678;BME280;47575;52.054;4.334;2022-09-03T02:45:23;100995.53;;;17.55;100.00
61678;BME280;47575;52.054;4.334;2022-09-03T02:47:55;100991.44;;;17.49;100.00
61678;BME280;47575;52.054;4.334;2022-09-03T02:50:25;100988.91;;;17.48;100.00
61678;BME280;47575;52.054;4.334;2022-09-03T02:52:52;100987.28;;;17.45;100.00
61678;BME280;47575;52.054;4.334;2022-09-03T02:55:20;100989.16;;;17.43;100.00
61678;BME280;47575;52.054;4.334;2022-09-03T02:57:47;100983.47;;;17.35;100.00
61678;BME280;47575;52.054;4.334;2022-09-03T03:00:16;100992.53;;;17.31;100.00
61678;BME280;47575;52.054;4.334;2022-09-03T03:02:43;100984.69;;;17.29;100.00
61678;BME280;47575;52.054;4.334;2022-09-03T03:05:18;100995.53;;;17.25;100.00
61678;BME280;47575;52.054;4.334;2022-09-03T03:07:47;100977.34;;;17.19;100.00
61678;BME280;47575;52.054;4.334;2022-09-03T03:10:15;100978.50;;;17.14;100.00
61678;BME280;47575;52.054;4.334;2022-09-03T03:12:42;100986.41;;;17.14;100.00
61678;BME280;47575;52.054;4.334;2022-09-03T03:15:10;100984.78;;;17.12;100.00
61678;BME280;47575;52.054;4.334;2022-09-03T03:17:37;100991.00;;;17.11;100.00
61678;BME280;47575;52.054;4.334;2022-09-03T03:20:05;100985.91;;;17.08;100.00
61678;BME280;47575;52.054;4.334;2022-09-03T03:22:34;100987.88;;;17.04;100.00
61678;BME280;47575;52.054;4.334;2022-09-03T03:25:01;100995.03;;;17.02;100.00
61678;BME280;47575;52.054;4.334;2022-09-03T03:27:30;100991.47;;;17.03;100.00
61678;BME280;47575;52.054;4.334;2022-09-03T03:29:57;101003.31;;;16.96;100.00
61678;BME280;47575;52.054;4.334;2022-09-03T03:32:25;100995.47;;;16.95;100.00
61678;BME280;47575;52.054;4.334;2022-09-03T03:34:52;100993.78;;;16.94;100.00
61678;BME280;47575;52.054;4.334;2022-09-03T03:37:20;100994.81;;;16.91;100.00
61678;BME280;47575;52.054;4.334;2022-09-03T03:39:48;100995.06;;;16.86;100.00
61678;BME280;47575;52.054;4.334;2022-09-03T03:42:15;100995.81;;;16.88;100.00
61678;BME280;47575;52.054;4.334;2022-09-03T03:44:42;101002.81;;;16.89;100.00
61678;BME280;47575;52.054;4.334;2022-09-03T03:47:10;100992.84;;;16.95;100.00
61678;BME280;47575;52.054;4.334;2022-09-03T03:49:37;100996.41;;;16.94;100.00
61678;BME280;47575;52.054;4.334;2022-09-03T03:52:04;101003.31;;;16.96;100.00
61678;BME280;47575;52.054;4.334;2022-09-03T03:54:31;100997.19;;;16.96;100.00
61678;BME280;47575;52.054;4.334;2022-09-03T03:57:00;100994.44;;;16.97;100.00
61678;BME280;47575;52.054;4.334;2022-09-03T03:59:27;100998.13;;;16.95;100.00
61678;BME280;47575;52.054;4.334;2022-09-03T04:01:55;100993.59;;;16.97;100.00
61678;BME280;47575;52.054;4.334;2022-09-03T04:04:22;100983.94;;;16.96;100.00
61678;BME280;47575;52.054;4.334;2022-09-03T04:06:49;100994.53;;;16.96;100.00
61678;BME280;47575;52.054;4.334;2022-09-03T04:09:16;100990.19;;;16.95;100.00
61678;BME280;47575;52.054;4.334;2022-09-03T04:11:43;100993.88;;;16.92;100.00
61678;BME280;47575;52.054;4.334;2022-09-03T04:14:12;100993.16;;;16.88;100.00
61678;BME280;47575;52.054;4.334;2022-09-03T04:16:39;100993.88;;;16.92;100.00
61678;BME280;47575;52.054;4.334;2022-09-03T04:19:06;100996.56;;;16.91;100.00
61678;BME280;47575;52.054;4.334;2022-09-03T04:21:33;100984.28;;;16.89;100.00
61678;BME280;47575;52.054;4.334;2022-09-03T04:24:03;100982.78;;;16.85;100.00
61678;BME280;47575;52.054;4.334;2022-09-03T04:26:32;100984.56;;;16.85;100.00
61678;BME280;47575;52.054;4.334;2022-09-03T04:29:02;100989.16;;;16.81;100.00
61678;BME280;47575;52.054;4.334;2022-09-03T04:31:32;100992.75;;;16.80;100.00
61678;BME280;47575;52.054;4.334;2022-09-03T04:34:00;100987.66;;;16.77;100.00
61678;BME280;47575;52.054;4.334;2022-09-03T04:36:29;100986.84;;;16.75;100.00
61678;BME280;47575;52.054;4.334;2022-09-03T04:38:58;100986.28;;;16.70;100.00
61678;BME280;47575;52.054;4.334;2022-09-03T04:41:28;100980.25;;;16.67;100.00
61678;BME280;47575;52.054;4.334;2022-09-03T04:43:57;100987.34;;;16.66;100.00
61678;BME280;47575;52.054;4.334;2022-09-03T04:46:26;100985.88;;;16.60;100.00
61678;BME280;47575;52.054;4.334;2022-09-03T04:48:59;100985.97;;;16.59;100.00
61678;BME280;47575;52.054;4.334;2022-09-03T04:51:27;100980.94;;;16.54;100.00
61678;BME280;47575;52.054;4.334;2022-09-03T04:53:57;100986.28;;;16.53;100.00
61678;BME280;47575;52.054;4.334;2022-09-03T04:56:27;100990.81;;;16.51;100.00
61678;BME280;47575;52.054;4.334;2022-09-03T04:58:56;100980.53;;;16.46;100.00
61678;BME280;47575;52.054;4.334;2022-09-03T05:01:26;100981.44;;;16.45;100.00
61678;BME280;47575;52.054;4.334;2022-09-03T05:03:54;100989.63;;;16.41;100.00
61678;BME280;47575;52.054;4.334;2022-09-03T05:06:24;100984.66;;;16.34;100.00
61678;BME280;47575;52.054;4.334;2022-09-03T05:08:53;100986.56;;;16.32;100.00
61678;BME280;47575;52.054;4.334;2022-09-03T05:11:22;100979.47;;;16.33;100.00
61678;BME280;47575;52.054;4.334;2022-09-03T05:13:51;100988.41;;;16.30;100.00
61678;BME280;47575;52.054;4.334;2022-09-03T05:16:19;100991.97;;;16.29;100.00
61678;BME280;47575;52.054;4.334;2022-09-03T05:18:47;100990.19;;;16.30;100.00
61678;BME280;47575;52.054;4.334;2022-09-03T05:21:16;100993.00;;;16.27;100.00
61678;BME280;47575;52.054;4.334;2022-09-03T05:23:47;100997.53;;;16.25;100.00
61678;BME280;47575;52.054;4.334;2022-09-03T05:26:16;100995.78;;;16.24;100.00
61678;BME280;47575;52.054;4.334;2022-09-03T05:28:45;100997.44;;;16.26;100.00
61678;BME280;47575;52.054;4.334;2022-09-03T05:31:13;101001.06;;;16.24;100.00
61678;BME280;47575;52.054;4.334;2022-09-03T05:33:42;100998.38;;;16.25;100.00
61678;BME280;47575;52.054;4.334;2022-09-03T05:36:12;100997.53;;;16.25;100.00
61678;BME280;47575;52.054;4.334;2022-09-03T05:38:41;100993.16;;;16.24;100.00
61678;BME280;47575;52.054;4.334;2022-09-03T05:41:10;100997.16;;;16.31;100.00
61678;BME280;47575;52.054;4.334;2022-09-03T05:43:39;100997.44;;;16.26;100.00
61678;BME280;47575;52.054;4.334;2022-09-03T05:46:08;100995.72;;;16.25;100.00
61678;BME280;47575;52.054;4.334;2022-09-03T05:48:38;100998.44;;;16.24;100.00
61678;BME280;47575;52.054;4.334;2022-09-03T05:51:07;100992.78;;;16.31;100.00
61678;BME280;47575;52.054;4.334;2022-09-03T05:53:36;100997.78;;;16.36;100.00
61678;BME280;47575;52.054;4.334;2022-09-03T05:56:05;100994.22;;;16.37;100.00
61678;BME280;47575;52.054;4.334;2022-09-03T05:58:35;101000.28;;;16.39;100.00
61678;BME280;47575;52.054;4.334;2022-09-03T06:01:09;101004.63;;;16.40;100.00
61678;BME280;47575;52.054;4.334;2022-09-03T06:03:38;101000.09;;;16.42;100.00
61678;BME280;47575;52.054;4.334;2022-09-03T06:06:06;101001.91;;;16.42;100.00
61678;BME280;47575;52.054;4.334;2022-09-03T06:08:34;101003.34;;;16.47;100.00
61678;BME280;47575;52.054;4.334;2022-09-03T06:11:04;101003.09;;;16.52;100.00
61678;BME280;47575;52.054;4.334;2022-09-03T06:13:33;101000.88;;;16.60;100.00
61678;BME280;47575;52.054;4.334;2022-09-03T06:16:03;101007.53;;;16.67;100.00
61678;BME280;47575;52.054;4.334;2022-09-03T06:18:31;101016.88;;;16.74;100.00
61678;BME280;47575;52.054;4.334;2022-09-03T06:20:59;101013.81;;;16.82;100.00
61678;BME280;47575;52.054;4.334;2022-09-03T06:23:28;101014.06;;;16.93;100.00
61678;BME280;47575;52.054;4.334;2022-09-03T06:26:00;101013.66;;;17.01;100.00
61678;BME280;47575;52.054;4.334;2022-09-03T06:28:29;101011.09;;;17.15;100.00
61678;BME280;47575;52.054;4.334;2022-09-03T06:31:00;101017.97;;;17.93;100.00
61678;BME280;47575;52.054;4.334;2022-09-03T06:33:28;101018.44;;;19.00;100.00
61678;BME280;47575;52.054;4.334;2022-09-03T06:35:57;101019.84;;;19.59;100.00
61678;BME280;47575;52.054;4.334;2022-09-03T06:38:26;101016.59;;;20.32;100.00
61678;BME280;47575;52.054;4.334;2022-09-03T06:40:54;101021.16;;;20.43;100.00
61678;BME280;47575;52.054;4.334;2022-09-03T06:43:23;101017.44;;;20.71;100.00
61678;BME280;47575;52.054;4.334;2022-09-03T06:45:53;101019.28;;;20.94;100.00
61678;BME280;47575;52.054;4.334;2022-09-03T06:48:22;101029.00;;;21.07;100.00
61678;BME280;47575;52.054;4.334;2022-09-03T06:50:54;101026.06;;;21.22;100.00
61678;BME280;47575;52.054;4.334;2022-09-03T06:53:25;101026.31;;;21.19;100.00
61678;BME280;47575;52.054;4.334;2022-09-03T06:55:54;101030.19;;;21.74;100.00
61678;BME280;47575;52.054;4.334;2022-09-03T06:58:22;101031.38;;;22.05;100.00
61678;BME280;47575;52.054;4.334;2022-09-03T07:00:50;101039.66;;;21.90;100.00
61678;BME280;47575;52.054;4.334;2022-09-03T07:03:19;101032.25;;;22.17;100.00
61678;BME280;47575;52.054;4.334;2022-09-03T07:05:48;101030.34;;;22.53;100.00
61678;BME280;47575;52.054;4.334;2022-09-03T07:08:15;101035.78;;;22.51;100.00
61678;BME280;47575;52.054;4.334;2022-09-03T07:10:45;101033.56;;;22.79;100.00
61678;BME280;47575;52.054;4.334;2022-09-03T07:13:13;101035.53;;;23.42;100.00
61678;BME280;47575;52.054;4.334;2022-09-03T07:15:41;101037.03;;;23.88;100.00
61678;BME280;47575;52.054;4.334;2022-09-03T07:18:08;101034.19;;;22.71;100.00
61678;BME280;47575;52.054;4.334;2022-09-03T07:20:35;101026.38;;;23.45;100.00
61678;BME280;47575;52.054;4.334;2022-09-03T07:23:04;101033.97;;;23.72;100.00
61678;BME280;47575;52.054;4.334;2022-09-03T07:25:31;101032.84;;;23.74;100.00
61678;BME280;47575;52.054;4.334;2022-09-03T07:27:58;101026.50;;;24.17;100.00
61678;BME280;47575;52.054;4.334;2022-09-03T07:30:26;101035.66;;;23.73;100.00
61678;BME280;47575;52.054;4.334;2022-09-03T07:32:53;101027.22;;;23.98;100.00
61678;BME280;47575;52.054;4.334;2022-09-03T07:35:20;101026.97;;;24.01;100.00
61678;BME280;47575;52.054;4.334;2022-09-03T07:37:50;101034.84;;;24.45;100.00
61678;BME280;47575;52.054;4.334;2022-09-03T07:40:21;101031.75;;;24.90;100.00
61678;BME280;47575;52.054;4.334;2022-09-03T07:42:48;101032.53;;;25.11;100.00
61678;BME280;47575;52.054;4.334;2022-09-03T07:45:16;101031.41;;;25.13;100.00
61678;BME280;47575;52.054;4.334;2022-09-03T07:47:47;101031.56;;;25.60;100.00
61678;BME280;47575;52.054;4.334;2022-09-03T07:50:14;101026.41;;;24.99;100.00
61678;BME280;47575;52.054;4.334;2022-09-03T07:52:42;101034.97;;;25.72;100.00
61678;BME280;47575;52.054;4.334;2022-09-03T07:55:09;101034.53;;;25.77;100.00
61678;BME280;47575;52.054;4.334;2022-09-03T07:57:38;101036.38;;;25.76;100.00
61678;BME280;47575;52.054;4.334;2022-09-03T08:00:07;101035.50;;;25.47;100.00
61678;BME280;47575;52.054;4.334;2022-09-03T08:02:37;101040.88;;;25.76;100.00
61678;BME280;47575;52.054;4.334;2022-09-03T08:05:05;101044.75;;;26.39;100.00
61678;BME280;47575;52.054;4.334;2022-09-03T08:07:33;101051.63;;;26.79;100.00
61678;BME280;47575;52.054;4.334;2022-09-03T08:10:00;101045.59;;;26.95;100.00
61678;BME280;47575;52.054;4.334;2022-09-03T08:12:27;101049.03;;;27.32;100.00
61678;BME280;47575;52.054;4.334;2022-09-03T08:14:56;101058.94;;;27.85;96.49
61678;BME280;47575;52.054;4.334;2022-09-03T08:17:23;101055.31;;;27.06;98.65
61678;BME280;47575;52.054;4.334;2022-09-03T08:19:50;101057.50;;;26.08;100.00
61678;BME280;47575;52.054;4.334;2022-09-03T08:22:17;101063.03;;;27.36;100.00
61678;BME280;47575;52.054;4.334;2022-09-03T08:24:45;101055.09;;;27.17;99.70
61678;BME280;47575;52.054;4.334;2022-09-03T08:27:13;101056.84;;;27.71;98.88
61678;BME280;47575;52.054;4.334;2022-09-03T08:29:40;101058.03;;;27.41;98.54
61678;BME280;47575;52.054;4.334;2022-09-03T08:32:09;101062.50;;;27.50;96.32
61678;BME280;47575;52.054;4.334;2022-09-03T08:34:36;101060.00;;;28.10;94.93
61678;BME280;47575;52.054;4.334;2022-09-03T08:37:03;101065.56;;;27.55;96.23
61678;BME280;47575;52.054;4.334;2022-09-03T08:39:31;101062.25;;;27.26;98.49
61678;BME280;47575;52.054;4.334;2022-09-03T08:42:14;101058.88;;;27.59;96.91
61678;BME280;47575;52.054;4.334;2022-09-03T08:44:45;101063.91;;;28.42;92.44
61678;BME280;47575;52.054;4.334;2022-09-03T08:47:20;101058.50;;;28.68;91.84
61678;BME280;47575;52.054;4.334;2022-09-03T08:49:51;101061.84;;;28.62;93.97
61678;BME280;47575;52.054;4.334;2022-09-03T08:52:22;101068.84;;;28.03;92.13
61678;BME280;47575;52.054;4.334;2022-09-03T08:54:53;101064.75;;;28.42;92.89
61678;BME280;47575;52.054;4.334;2022-09-03T08:57:24;101058.09;;;28.97;92.91
61678;BME280;47575;52.054;4.334;2022-09-03T08:59:53;101066.41;;;29.20;86.63
61678;BME280;47575;52.054;4.334;2022-09-03T09:02:28;101061.06;;;28.78;86.51
61678;BME280;47575;52.054;4.334;2022-09-03T09:05:04;101059.00;;;29.06;84.92
61678;BME280;47575;52.054;4.334;2022-09-03T09:07:38;101065.09;;;29.32;88.07
61678;BME280;47575;52.054;4.334;2022-09-03T09:10:11;101065.94;;;29.24;86.96
61678;BME280;47575;52.054;4.334;2022-09-03T09:12:46;101061.97;;;29.61;88.27
61678;BME280;47575;52.054;4.334;2022-09-03T09:15:26;101073.22;;;29.40;87.01
61678;BME280;47575;52.054;4.334;2022-09-03T09:18:05;101068.44;;;29.18;86.31
61678;BME280;47575;52.054;4.334;2022-09-03T09:20:39;101077.06;;;29.21;86.23
61678;BME280;47575;52.054;4.334;2022-09-03T09:23:13;101068.38;;;29.60;85.45
61678;BME280;47575;52.054;4.334;2022-09-03T09:25:46;101080.81;;;29.37;85.71
61678;BME280;47575;52.054;4.334;2022-09-03T09:28:17;101077.09;;;29.46;82.62
61678;BME280;47575;52.054;4.334;2022-09-03T09:30:46;101074.84;;;28.75;87.73
61678;BME280;47575;52.054;4.334;2022-09-03T09:33:17;101060.38;;;28.41;89.62
61678;BME280;47575;52.054;4.334;2022-09-03T09:35:45;101074.28;;;29.72;84.48
61678;BME280;47575;52.054;4.334;2022-09-03T09:38:14;101076.59;;;30.40;80.58
61678;BME280;47575;52.054;4.334;2022-09-03T09:40:53;101081.09;;;29.17;84.32
61678;BME280;47575;52.054;4.334;2022-09-03T09:43:22;101066.97;;;28.89;89.28
61678;BME280;47575;52.054;4.334;2022-09-03T09:45:51;101073.28;;;28.64;87.46
61678;BME280;47575;52.054;4.334;2022-09-03T09:48:22;101063.50;;;28.97;86.85
61678;BME280;47575;52.054;4.334;2022-09-03T09:51:03;101061.72;;;28.46;90.15
61678;BME280;47575;52.054;4.334;2022-09-03T09:53:31;101055.06;;;28.92;89.65
61678;BME280;47575;52.054;4.334;2022-09-03T09:55:59;101069.56;;;29.74;83.68
61678;BME280;47575;52.054;4.334;2022-09-03T09:58:29;101075.03;;;30.54;79.13
61678;BME280;47575;52.054;4.334;2022-09-03T10:00:59;101063.44;;;29.39;82.46
61678;BME280;47575;52.054;4.334;2022-09-03T10:03:31;101062.81;;;29.86;80.93
61678;BME280;47575;52.054;4.334;2022-09-03T10:06:02;101060.63;;;29.90;81.33
61678;BME280;47575;52.054;4.334;2022-09-03T10:08:51;101068.38;;;29.93;81.42
61678;BME280;47575;52.054;4.334;2022-09-03T10:11:20;101064.69;;;30.10;79.34
61678;BME280;47575;52.054;4.334;2022-09-03T10:13:52;101059.41;;;29.35;79.03
61678;BME280;47575;52.054;4.334;2022-09-03T10:16:24;101070.75;;;30.12;77.84
61678;BME280;47575;52.054;4.334;2022-09-03T10:19:00;101062.88;;;30.50;77.60
61678;BME280;47575;52.054;4.334;2022-09-03T10:21:37;101064.50;;;31.06;76.69
61678;BME280;47575;52.054;4.334;2022-09-03T10:24:23;101065.66;;;30.81;76.65
61678;BME280;47575;52.054;4.334;2022-09-03T10:26:53;101060.44;;;29.99;80.37
61678;BME280;47575;52.054;4.334;2022-09-03T10:29:22;101060.19;;;29.19;83.44
61678;BME280;47575;52.054;4.334;2022-09-03T10:32:00;101058.59;;;29.92;81.00
61678;BME280;47575;52.054;4.334;2022-09-03T10:34:37;101061.94;;;29.45;87.46
61678;BME280;47575;52.054;4.334;2022-09-03T10:37:18;101063.59;;;29.38;82.25
61678;BME280;47575;52.054;4.334;2022-09-03T10:40:09;101053.97;;;29.27;83.22
61678;BME280;47575;52.054;4.334;2022-09-03T10:42:43;101055.56;;;29.70;81.19
61678;BME280;47575;52.054;4.334;2022-09-03T10:45:18;101059.28;;;29.53;81.45
61678;BME280;47575;52.054;4.334;2022-09-03T10:50:46;101056.84;;;29.26;85.39
61678;BME280;47575;52.054;4.334;2022-09-03T10:53:27;101066.84;;;29.90;82.11
61678;BME280;47575;52.054;4.334;2022-09-03T10:56:00;101059.63;;;29.66;81.80
61678;BME280;47575;52.054;4.334;2022-09-03T10:58:38;101068.47;;;29.42;84.15
61678;BME280;47575;52.054;4.334;2022-09-03T11:01:17;101064.63;;;30.02;79.40
61678;BME280;47575;52.054;4.334;2022-09-03T11:03:55;101062.13;;;29.84;82.00
61678;BME280;47575;52.054;4.334;2022-09-03T11:06:45;101063.00;;;28.67;85.41
61678;BME280;47575;52.054;4.334;2022-09-03T11:09:18;101057.06;;;29.57;81.48
61678;BME280;47575;52.054;4.334;2022-09-03T11:11:50;101068.91;;;29.88;78.21
61678;BME280;47575;52.054;4.334;2022-09-03T11:14:27;101060.53;;;29.24;80.03
61678;BME280;47575;52.054;4.334;2022-09-03T11:17:01;101061.53;;;29.07;82.65
61678;BME280;47575;52.054;4.334;2022-09-03T11:19:35;101063.41;;;29.15;83.91
61678;BME280;47575;52.054;4.334;2022-09-03T11:22:06;101057.50;;;29.19;83.94
61678;BME280;47575;52.054;4.334;2022-09-03T11:24:35;101064.88;;;29.09;81.56
61678;BME280;47575;52.054;4.334;2022-09-03T11:27:19;101059.03;;;29.14;88.24
61678;BME280;47575;52.054;4.334;2022-09-03T11:29:52;101054.06;;;28.93;84.29
61678;BME280;47575;52.054;4.334;2022-09-03T11:32:25;101053.66;;;29.38;83.09
61678;BME280;47575;52.054;4.334;2022-09-03T11:34:55;101058.19;;;29.30;82.33
61678;BME280;47575;52.054;4.334;2022-09-03T11:37:25;101053.22;;;28.92;81.49
61678;BME280;47575;52.054;4.334;2022-09-03T11:39:55;101053.53;;;29.64;88.10
61678;BME280;47575;52.054;4.334;2022-09-03T11:42:28;101051.81;;;29.39;82.28
61678;BME280;47575;52.054;4.334;2022-09-03T11:45:10;101049.13;;;29.47;79.54
61678;BME280;47575;52.054;4.334;2022-09-03T11:47:40;101051.25;;;29.11;80.62
61678;BME280;47575;52.054;4.334;2022-09-03T11:50:17;101044.16;;;29.02;82.20
61678;BME280;47575;52.054;4.334;2022-09-03T11:52:48;101045.88;;;29.27;81.08
61678;BME280;47575;52.054;4.334;2022-09-03T11:55:28;101044.91;;;29.44;78.88
61678;BME280;47575;52.054;4.334;2022-09-03T11:58:10;101047.94;;;29.49;82.83
61678;BME280;47575;52.054;4.334;2022-09-03T12:00:40;101046.03;;;29.09;78.90
61678;BME280;47575;52.054;4.334;2022-09-03T12:03:13;101051.25;;;29.19;76.75
61678;BME280;47575;52.054;4.334;2022-09-03T12:05:50;101052.66;;;30.04;69.58
61678;BME280;47575;52.054;4.334;2022-09-03T12:11:46;101045.09;;;29.92;66.00
61678;BME280;47575;52.054;4.334;2022-09-03T12:14:22;101037.72;;;28.26;71.93
61678;BME280;47575;52.054;4.334;2022-09-03T12:17:13;101050.91;;;28.11;76.46
61678;BME280;47575;52.054;4.334;2022-09-03T12:19:51;101037.38;;;28.29;74.68
61678;BME280;47575;52.054;4.334;2022-09-03T12:22:22;101040.59;;;28.93;75.40
61678;BME280;47575;52.054;4.334;2022-09-03T12:24:49;101036.63;;;29.21;71.73
61678;BME280;47575;52.054;4.334;2022-09-03T12:27:20;101038.88;;;29.67;69.59
61678;BME280;47575;52.054;4.334;2022-09-03T12:29:51;101036.63;;;29.21;75.39
61678;BME280;47575;52.054;4.334;2022-09-03T12:32:26;101035.69;;;28.96;72.34
61678;BME280;47575;52.054;4.334;2022-09-03T12:34:55;101032.75;;;28.82;75.85
61678;BME280;47575;52.054;4.334;2022-09-03T12:37:24;101051.94;;;29.13;74.29
61678;BME280;47575;52.054;4.334;2022-09-03T12:39:53;101041.41;;;29.60;70.60
61678;BME280;47575;52.054;4.334;2022-09-03T12:42:27;101031.66;;;28.92;72.40
61678;BME280;47575;52.054;4.334;2022-09-03T12:44:55;101033.56;;;29.16;74.64
61678;BME280;47575;52.054;4.334;2022-09-03T12:47:37;101036.66;;;30.11;82.07
61678;BME280;47575;52.054;4.334;2022-09-03T12:50:08;101031.72;;;29.25;75.62
61678;BME280;47575;52.054;4.334;2022-09-03T12:52:38;101034.75;;;29.06;80.42
61678;BME280;47575;52.054;4.334;2022-09-03T12:55:23;101029.31;;;28.98;78.31
61678;BME280;47575;52.054;4.334;2022-09-03T12:57:58;101032.25;;;29.20;79.21
61678;BME280;47575;52.054;4.334;2022-09-03T13:00:29;101024.53;;;29.74;78.03
61678;BME280;47575;52.054;4.334;2022-09-03T13:03:01;101032.19;;;30.43;75.67
61678;BME280;47575;52.054;4.334;2022-09-03T13:05:32;101035.84;;;29.54;74.73
61678;BME280;47575;52.054;4.334;2022-09-03T13:08:02;101040.84;;;29.48;72.65
61678;BME280;47575;52.054;4.334;2022-09-03T13:10:34;101029.72;;;29.35;72.00